Time;durP1;ratioP1;P1;durP2;ratioP2;P2;SDS_P1;SDS_P2;PMS_P1;PMS_P2;Temp;Humidity;BMP_temperature;BMP_pressure;BME280_temperature;BME280_humidity;BME280_pressure;Samples;Min_cycle;Max_cycle;Signal;HPM_P1;HPM_P2
2021/10/17 00:02:17;;;;;;;30.57;25.93;;;5.00;99.90;;;;;;5029623;28;20479;-67
2021/10/17 00:04:44;;;;;;;32.50;25.10;;;5.00;99.90;;;;;;5032697;28;20471;-67
2021/10/17 00:07:11;;;;;;;27.73;24.30;;;4.90;99.90;;;;;;5032825;28;20535;-67
2021/10/17 00:09:39;;;;;;;28.40;23.47;;;4.80;99.90;;;;;;5033061;28;20455;-67
2021/10/17 00:12:08;;;;;;;32.17;24.40;;;4.90;99.90;;;;;;5032692;28;20452;-67
2021/10/17 00:14:35;;;;;;;32.00;25.40;;;4.80;99.90;;;;;;5032673;28;21096;-67
2021/10/17 00:17:03;;;;;;;29.27;22.73;;;4.80;99.90;;;;;;5032780;28;20449;-67
2021/10/17 00:19:30;;;;;;;33.60;26.27;;;4.90;99.90;;;;;;5032901;28;20451;-67
2021/10/17 00:21:57;;;;;;;40.67;26.60;;;4.90;99.90;;;;;;5032656;28;20445;-67
2021/10/17 00:24:24;;;;;;;80.87;28.40;;;4.90;99.90;;;;;;5032453;28;20990;-67
2021/10/17 00:26:52;;;;;;;124.10;32.83;;;4.90;99.90;;;;;;5032319;28;20444;-67
2021/10/17 00:29:19;;;;;;;155.57;31.20;;;4.90;99.90;;;;;;5032846;28;20451;-67
2021/10/17 00:31:46;;;;;;;99.20;26.70;;;4.90;99.90;;;;;;5032499;28;20540;-67
2021/10/17 00:34:13;;;;;;;97.03;25.90;;;4.90;99.90;;;;;;5032786;28;20575;-67
2021/10/17 00:36:40;;;;;;;53.43;24.90;;;4.90;99.90;;;;;;5032347;28;20445;-67
2021/10/17 00:39:07;;;;;;;94.13;26.57;;;4.90;99.90;;;;;;5032548;28;20527;-67
2021/10/17 00:41:34;;;;;;;45.30;24.43;;;4.80;99.90;;;;;;5032294;28;20448;-67
2021/10/17 00:44:03;;;;;;;55.40;23.27;;;4.70;99.90;;;;;;5032146;28;20504;-67
2021/10/17 00:46:30;;;;;;;98.83;25.90;;;4.80;99.90;;;;;;5031962;28;20459;-67
2021/10/17 00:48:57;;;;;;;53.43;22.63;;;4.60;99.90;;;;;;5032231;28;20449;-67
2021/10/17 00:51:24;;;;;;;68.37;22.97;;;4.50;99.90;;;;;;5032278;28;20528;-67
2021/10/17 00:53:51;;;;;;;28.97;22.13;;;4.50;99.90;;;;;;5031865;28;21007;-68
2021/10/17 00:56:20;;;;;;;43.77;22.13;;;4.50;99.90;;;;;;5031378;28;20456;-66
2021/10/17 00:58:46;;;;;;;41.90;21.90;;;4.50;99.90;;;;;;5031928;28;20440;-67
2021/10/17 01:01:15;;;;;;;39.13;21.10;;;4.50;99.90;;;;;;5031980;28;20453;-68
2021/10/17 01:03:42;;;;;;;48.37;20.57;;;4.50;99.90;;;;;;5031811;28;20457;-68
2021/10/17 01:06:12;;;;;;;31.10;19.97;;;4.50;99.90;;;;;;5031788;28;21098;-67
2021/10/17 01:08:39;;;;;;;25.97;19.37;;;4.40;99.90;;;;;;5031882;28;20449;-67
2021/10/17 01:11:06;;;;;;;22.33;19.90;;;4.30;99.90;;;;;;5032226;28;20455;-67
2021/10/17 01:13:32;;;;;;;22.30;19.03;;;4.20;99.90;;;;;;5031717;28;21035;-67
2021/10/17 01:15:59;;;;;;;34.07;19.27;;;4.30;99.90;;;;;;5030896;28;20839;-67
2021/10/17 01:18:28;;;;;;;29.37;18.93;;;4.30;99.90;;;;;;5031494;28;20532;-67
2021/10/17 01:20:56;;;;;;;21.03;17.90;;;4.30;99.90;;;;;;5031997;28;20445;-67
2021/10/17 01:23:23;;;;;;;25.10;18.60;;;4.20;99.90;;;;;;5032315;28;20472;-67
2021/10/17 01:25:50;;;;;;;20.80;18.60;;;4.20;99.90;;;;;;5031894;28;20441;-67
2021/10/17 01:28:17;;;;;;;20.70;17.17;;;4.20;99.90;;;;;;5031532;28;21103;-67
2021/10/17 01:30:45;;;;;;;18.67;16.63;;;4.10;99.90;;;;;;5031821;28;20467;-67
2021/10/17 01:33:11;;;;;;;20.40;17.60;;;4.10;99.90;;;;;;5032035;28;20480;-66
2021/10/17 01:35:38;;;;;;;21.20;16.83;;;4.10;99.90;;;;;;5031716;28;20479;-67
2021/10/17 01:38:07;;;;;;;29.03;19.30;;;4.10;99.90;;;;;;5031458;28;20436;-67
2021/10/17 01:40:34;;;;;;;53.47;22.03;;;4.00;99.90;;;;;;5031561;28;20445;-67
2021/10/17 01:43:01;;;;;;;36.70;19.27;;;4.00;99.90;;;;;;5031473;28;20444;-67
2021/10/17 01:45:28;;;;;;;27.43;19.00;;;4.00;99.90;;;;;;5031411;28;20503;-67
2021/10/17 01:47:57;;;;;;;28.87;19.23;;;3.90;99.90;;;;;;5031110;28;20433;-67
2021/10/17 01:50:24;;;;;;;26.47;19.40;;;3.90;99.90;;;;;;5031226;28;20536;-67
2021/10/17 01:52:51;;;;;;;405.53;47.07;;;3.80;99.90;;;;;;5031053;28;20441;-66
2021/10/17 01:55:19;;;;;;;261.53;34.93;;;3.80;99.90;;;;;;5031190;28;20451;-66
2021/10/17 01:57:46;;;;;;;228.90;32.43;;;3.90;99.90;;;;;;5030876;28;20520;-66
2021/10/17 02:00:14;;;;;;;170.53;28.40;;;3.90;99.90;;;;;;5030997;28;20436;-66
2021/10/17 02:02:41;;;;;;;89.40;22.60;;;3.90;99.90;;;;;;5031146;28;20451;-66
2021/10/17 02:05:08;;;;;;;74.07;22.10;;;3.90;99.90;;;;;;5031013;28;20461;-66
2021/10/17 02:07:35;;;;;;;73.67;22.23;;;3.80;99.90;;;;;;5030681;28;20441;-66
2021/10/17 02:10:02;;;;;;;26.53;18.33;;;3.80;99.90;;;;;;5030959;28;20455;-66
2021/10/17 02:12:30;;;;;;;27.50;17.57;;;3.70;99.90;;;;;;5031003;28;20449;-66
2021/10/17 02:14:57;;;;;;;33.67;20.03;;;3.70;99.90;;;;;;5030467;28;20491;-66
2021/10/17 02:17:25;;;;;;;24.73;17.50;;;3.70;99.90;;;;;;5030080;28;20503;-66
2021/10/17 02:19:51;;;;;;;28.47;20.47;;;3.80;99.90;;;;;;5030780;28;20456;-66
2021/10/17 02:22:18;;;;;;;49.13;20.63;;;3.80;99.90;;;;;;5030737;28;20449;-66
2021/10/17 02:24:45;;;;;;;36.30;20.63;;;3.70;99.90;;;;;;5030551;28;20457;-66
2021/10/17 02:27:12;;;;;;;50.13;20.47;;;3.80;99.90;;;;;;5030180;28;20474;-66
2021/10/17 02:29:40;;;;;;;39.73;19.53;;;3.80;99.90;;;;;;5030430;28;20459;-66
2021/10/17 02:32:07;;;;;;;29.60;20.07;;;3.80;99.90;;;;;;5030470;28;20536;-66
2021/10/17 02:34:34;;;;;;;32.63;21.07;;;3.80;99.90;;;;;;5030373;28;20488;-66
2021/10/17 02:37:01;;;;;;;41.07;20.10;;;3.90;99.90;;;;;;5029853;28;20978;-66
2021/10/17 02:39:28;;;;;;;31.83;20.73;;;4.00;99.90;;;;;;5030246;28;20939;-66
2021/10/17 02:41:54;;;;;;;40.83;22.47;;;4.10;99.90;;;;;;5030540;28;20453;-67
2021/10/17 02:44:21;;;;;;;53.37;23.90;;;4.10;99.90;;;;;;5030486;28;20479;-67
2021/10/17 02:46:49;;;;;;;28.77;20.07;;;4.20;99.90;;;;;;5030273;28;20487;-67
2021/10/17 02:49:16;;;;;;;30.43;19.67;;;4.20;99.90;;;;;;5030177;28;20975;-66
2021/10/17 02:51:43;;;;;;;34.50;21.83;;;4.30;99.90;;;;;;5030407;28;20455;-66
2021/10/17 02:54:10;;;;;;;33.80;21.87;;;4.30;99.90;;;;;;5030220;28;20484;-66
2021/10/17 02:56:37;;;;;;;32.03;21.07;;;4.30;99.90;;;;;;5029723;28;20445;-66
2021/10/17 02:59:03;;;;;;;38.10;22.50;;;4.40;99.90;;;;;;5029896;28;20824;-66
2021/10/17 03:01:30;;;;;;;31.00;19.73;;;4.50;99.90;;;;;;5030157;28;20448;-66
2021/10/17 03:03:58;;;;;;;37.70;22.70;;;4.70;99.90;;;;;;5030000;28;20461;-66
2021/10/17 03:06:26;;;;;;;37.90;21.10;;;4.70;99.90;;;;;;5029692;28;20459;-67
2021/10/17 03:08:53;;;;;;;63.27;21.27;;;4.60;99.90;;;;;;5030020;28;20824;-66
2021/10/17 03:11:20;;;;;;;51.97;21.60;;;4.70;99.90;;;;;;5029931;28;20935;-66
2021/10/17 03:13:48;;;;;;;28.13;18.87;;;4.60;99.90;;;;;;5029674;28;20485;-66
2021/10/17 03:16:15;;;;;;;30.50;20.17;;;4.60;99.90;;;;;;5030006;28;20449;-65
2021/10/17 03:18:41;;;;;;;23.77;16.10;;;4.50;99.90;;;;;;5030020;28;20444;-66
2021/10/17 03:21:10;;;;;;;26.33;17.27;;;4.50;99.90;;;;;;5030095;28;20472;-66
2021/10/17 03:23:36;;;;;;;24.77;16.40;;;4.40;99.90;;;;;;5029836;28;20467;-66
2021/10/17 03:26:03;;;;;;;22.37;15.43;;;4.40;99.90;;;;;;5029796;28;20452;-66
2021/10/17 03:28:30;;;;;;;20.53;16.33;;;4.30;99.90;;;;;;5029782;28;20536;-66
2021/10/17 03:30:57;;;;;;;23.10;16.83;;;4.40;99.90;;;;;;5030122;28;20463;-66
2021/10/17 03:33:24;;;;;;;21.40;16.23;;;4.40;99.90;;;;;;5029605;28;20480;-66
2021/10/17 03:35:51;;;;;;;21.83;14.63;;;4.40;99.90;;;;;;5029709;28;20571;-67
2021/10/17 03:38:19;;;;;;;20.20;15.63;;;4.40;99.90;;;;;;5030592;28;20452;-66
2021/10/17 03:40:46;;;;;;;20.40;15.80;;;4.40;99.90;;;;;;5033594;28;20449;-67
2021/10/17 03:43:13;;;;;;;23.03;17.57;;;4.40;99.90;;;;;;5033430;28;20563;-67
2021/10/17 03:45:40;;;;;;;19.23;15.50;;;4.40;99.90;;;;;;5033638;28;20457;-67
2021/10/17 03:48:07;;;;;;;21.60;16.70;;;4.30;99.90;;;;;;5033472;28;20449;-67
2021/10/17 03:50:34;;;;;;;23.47;14.50;;;4.40;99.90;;;;;;5033493;28;20448;-67
2021/10/17 03:53:01;;;;;;;29.30;17.93;;;4.30;99.90;;;;;;5033329;28;20448;-66
2021/10/17 03:55:30;;;;;;;26.90;15.43;;;4.20;99.90;;;;;;5033169;28;21388;-66
2021/10/17 03:57:56;;;;;;;29.73;16.60;;;4.20;99.90;;;;;;5032998;28;20436;-67
2021/10/17 04:00:24;;;;;;;24.03;15.80;;;4.10;99.90;;;;;;5033064;28;20465;-66
2021/10/17 04:02:52;;;;;;;68.80;17.87;;;4.00;99.90;;;;;;5033501;28;20452;-66
2021/10/17 04:05:19;;;;;;;38.60;16.37;;;4.00;99.90;;;;;;5033534;28;20444;-67
2021/10/17 04:07:46;;;;;;;42.47;16.63;;;4.00;99.90;;;;;;5033124;28;20463;-67
2021/10/17 04:10:13;;;;;;;33.63;15.43;;;4.00;99.90;;;;;;5033750;28;20480;-67
2021/10/17 04:12:41;;;;;;;26.47;15.00;;;4.00;99.90;;;;;;5033145;28;20444;-67
2021/10/17 04:15:09;;;;;;;28.13;16.17;;;4.00;99.90;;;;;;5033121;28;20484;-66
2021/10/17 04:17:36;;;;;;;25.17;17.53;;;3.90;99.90;;;;;;5032740;28;20800;-67
2021/10/17 04:20:03;;;;;;;27.10;16.10;;;4.00;99.90;;;;;;5032931;28;20968;-66
2021/10/17 04:22:30;;;;;;;80.77;20.70;;;4.00;99.90;;;;;;5032777;28;20455;-67
2021/10/17 04:24:57;;;;;;;76.50;19.73;;;4.00;99.90;;;;;;5033261;28;20460;-67
2021/10/17 04:27:24;;;;;;;21.53;16.70;;;4.00;99.90;;;;;;5032662;28;20451;-67
2021/10/17 04:29:53;;;;;;;23.40;17.20;;;4.10;99.90;;;;;;5032758;28;20974;-67
2021/10/17 04:32:19;;;;;;;53.00;18.77;;;4.20;99.90;;;;;;5032761;28;20541;-67
2021/10/17 04:34:46;;;;;;;77.43;22.13;;;4.40;99.90;;;;;;5032505;28;20480;-68
2021/10/17 04:37:13;;;;;;;44.50;17.90;;;4.40;99.90;;;;;;5032451;28;20449;-66
2021/10/17 04:39:41;;;;;;;224.63;30.17;;;4.40;99.90;;;;;;5032553;28;20835;-66
2021/10/17 04:42:08;;;;;;;284.03;34.10;;;4.50;99.90;;;;;;5032569;28;20466;-66
2021/10/17 04:44:35;;;;;;;194.87;29.20;;;4.30;99.90;;;;;;5032376;28;20472;-67
2021/10/17 04:47:03;;;;;;;254.30;31.53;;;4.30;99.90;;;;;;5032379;28;20491;-67
2021/10/17 04:49:30;;;;;;;302.33;34.17;;;4.20;99.90;;;;;;5030754;28;20446;-66
2021/10/17 04:51:57;;;;;;;196.47;31.20;;;4.10;99.90;;;;;;5032394;28;20449;-66
2021/10/17 04:54:24;;;;;;;216.37;29.67;;;4.10;99.90;;;;;;5032095;28;20526;-66
2021/10/17 04:56:51;;;;;;;282.37;35.70;;;4.20;99.90;;;;;;5031764;28;20445;-66
2021/10/17 04:59:21;;;;;;;94.10;21.67;;;4.20;99.90;;;;;;5032237;28;20441;-66
2021/10/17 05:01:48;;;;;;;73.13;20.87;;;4.30;99.90;;;;;;5032153;28;20485;-67
2021/10/17 05:04:16;;;;;;;128.73;23.27;;;4.30;99.90;;;;;;5032031;28;20467;-67
2021/10/17 05:06:43;;;;;;;187.07;28.90;;;4.40;99.90;;;;;;5031785;28;20451;-66
2021/10/17 05:09:10;;;;;;;110.70;24.47;;;4.30;99.90;;;;;;5032115;28;20456;-67
2021/10/17 05:11:37;;;;;;;40.70;19.67;;;4.30;99.90;;;;;;5032043;28;20445;-67
2021/10/17 05:14:03;;;;;;;79.97;21.77;;;4.30;99.90;;;;;;5031964;28;20496;-67
2021/10/17 05:16:30;;;;;;;94.17;25.23;;;4.40;99.90;;;;;;5031517;28;20441;-67
2021/10/17 05:18:57;;;;;;;129.97;26.73;;;4.30;99.90;;;;;;5031954;28;20451;-66
2021/10/17 05:21:28;;;;;;;81.10;22.30;;;4.40;99.90;;;;;;5032013;28;20444;-66
2021/10/17 05:23:55;;;;;;;40.93;19.33;;;4.40;99.90;;;;;;5031808;28;20476;-66
2021/10/17 05:26:21;;;;;;;49.13;20.07;;;4.40;99.90;;;;;;5031378;28;20444;-66
2021/10/17 05:28:48;;;;;;;29.47;18.50;;;4.50;99.90;;;;;;5031696;28;21025;-66
2021/10/17 05:31:15;;;;;;;27.70;19.97;;;4.50;99.90;;;;;;5031710;28;20446;-66
2021/10/17 05:33:44;;;;;;;40.27;19.07;;;4.50;99.90;;;;;;5031308;28;20465;-67
2021/10/17 05:36:11;;;;;;;29.13;18.40;;;4.60;99.90;;;;;;5031561;28;20497;-66
2021/10/17 05:38:39;;;;;;;33.90;18.13;;;4.60;99.90;;;;;;5031071;28;20950;-67
2021/10/17 05:41:06;;;;;;;24.97;18.10;;;4.70;99.90;;;;;;5031223;28;20447;-67
2021/10/17 05:43:33;;;;;;;69.87;22.17;;;4.70;99.90;;;;;;5031225;28;20476;-67
2021/10/17 05:46:00;;;;;;;47.73;20.60;;;4.70;99.90;;;;;;5031190;28;20449;-65
2021/10/17 05:48:27;;;;;;;28.60;17.70;;;4.70;99.90;;;;;;5030157;28;20845;-67
2021/10/17 05:50:54;;;;;;;28.27;19.20;;;4.80;99.90;;;;;;5031244;28;20456;-67
2021/10/17 05:53:20;;;;;;;30.90;20.10;;;4.80;99.90;;;;;;5031022;28;20465;-67
2021/10/17 05:55:48;;;;;;;31.13;18.30;;;4.90;99.90;;;;;;5030880;28;20476;-67
2021/10/17 05:58:15;;;;;;;25.17;18.00;;;4.90;99.90;;;;;;5030989;28;20444;-67
2021/10/17 06:00:42;;;;;;;25.17;17.17;;;4.90;99.90;;;;;;5030707;28;20900;-67
2021/10/17 06:03:09;;;;;;;22.33;18.43;;;4.90;99.90;;;;;;5030958;28;20476;-67
2021/10/17 06:05:36;;;;;;;22.43;17.13;;;5.00;99.90;;;;;;5030837;28;20868;-67
2021/10/17 06:08:03;;;;;;;25.10;18.30;;;5.10;99.90;;;;;;5030631;28;20445;-66
2021/10/17 06:10:30;;;;;;;25.77;18.20;;;5.20;99.90;;;;;;5030593;28;20445;-67
2021/10/17 06:12:58;;;;;;;24.20;17.43;;;5.30;99.90;;;;;;5030889;28;20453;-66
2021/10/17 06:15:25;;;;;;;25.53;17.13;;;5.50;99.90;;;;;;5030329;28;20487;-67
2021/10/17 06:17:52;;;;;;;22.30;17.40;;;5.50;99.90;;;;;;5030397;28;20447;-66
2021/10/17 06:20:19;;;;;;;22.00;16.30;;;5.50;99.90;;;;;;5030679;28;20453;-66
2021/10/17 06:22:46;;;;;;;20.53;17.33;;;5.50;99.90;;;;;;5030232;28;20451;-66
2021/10/17 06:25:13;;;;;;;26.37;18.70;;;5.60;99.90;;;;;;5030650;28;20448;-66
2021/10/17 06:27:40;;;;;;;21.83;16.40;;;5.70;99.90;;;;;;5029851;28;20441;-66
2021/10/17 06:30:08;;;;;;;20.60;16.33;;;5.70;99.90;;;;;;5030548;28;20492;-66
2021/10/17 06:32:35;;;;;;;21.00;16.57;;;5.80;99.90;;;;;;5030296;28;20965;-66
2021/10/17 06:35:02;;;;;;;20.73;15.63;;;5.80;99.90;;;;;;5030299;28;20843;-66
2021/10/17 06:37:29;;;;;;;23.00;16.80;;;5.90;99.90;;;;;;5029839;28;20465;-65
2021/10/17 06:39:56;;;;;;;25.30;18.90;;;5.90;99.90;;;;;;5030347;28;20443;-65
2021/10/17 06:42:23;;;;;;;20.97;16.20;;;6.00;99.90;;;;;;5030159;28;20449;-66
2021/10/17 06:44:49;;;;;;;21.33;18.10;;;6.10;99.90;;;;;;5030296;28;20469;-66
2021/10/17 06:47:18;;;;;;;23.47;17.30;;;6.20;99.90;;;;;;5029927;28;20452;-66
2021/10/17 06:49:44;;;;;;;21.77;17.90;;;6.20;99.90;;;;;;5030296;28;20445;-66
2021/10/17 06:52:11;;;;;;;19.60;15.77;;;6.30;99.90;;;;;;5030309;28;20445;-66
2021/10/17 06:54:38;;;;;;;28.23;18.20;;;6.30;99.90;;;;;;5029789;28;20500;-66
2021/10/17 06:57:05;;;;;;;23.37;16.60;;;6.40;99.90;;;;;;5030024;28;20463;-66
2021/10/17 06:59:32;;;;;;;20.47;15.17;;;6.50;99.90;;;;;;5030094;28;20440;-66
2021/10/17 07:01:59;;;;;;;20.63;16.13;;;6.50;99.90;;;;;;5030310;28;20455;-66
2021/10/17 07:04:27;;;;;;;23.70;17.03;;;6.50;99.90;;;;;;5029929;28;20551;-66
2021/10/17 07:06:54;;;;;;;22.50;18.23;;;6.60;99.90;;;;;;5029969;28;20827;-66
2021/10/17 07:09:21;;;;;;;20.37;17.10;;;6.70;99.90;;;;;;5030253;28;20455;-65
2021/10/17 07:11:48;;;;;;;25.13;18.70;;;6.90;99.90;;;;;;5029973;28;20445;-66
2021/10/17 07:14:15;;;;;;;22.63;18.10;;;7.00;99.90;;;;;;5032666;28;20468;-63
2021/10/17 07:16:41;;;;;;;23.77;16.43;;;7.10;99.90;;;;;;5033449;28;20483;-65
2021/10/17 07:19:08;;;;;;;17.13;15.23;;;7.20;99.90;;;;;;5033847;28;20448;-66
2021/10/17 07:21:36;;;;;;;21.00;15.40;;;7.30;99.90;;;;;;5033797;28;20822;-65
2021/10/17 07:24:04;;;;;;;20.40;14.80;;;7.40;99.90;;;;;;5033597;28;20468;-65
2021/10/17 07:26:30;;;;;;;21.43;15.83;;;7.40;99.90;;;;;;5032923;28;20440;-65
2021/10/17 07:28:57;;;;;;;19.13;15.90;;;7.50;99.90;;;;;;5033367;28;20456;-71
2021/10/17 07:31:24;;;;;;;19.93;16.50;;;7.60;99.90;;;;;;5033200;28;20485;-69
2021/10/17 07:33:51;;;;;;;17.50;15.50;;;7.70;99.90;;;;;;5033113;28;21049;-65
2021/10/17 07:36:18;;;;;;;16.30;14.60;;;7.80;99.90;;;;;;5032761;28;21086;-65
2021/10/17 07:38:46;;;;;;;18.13;16.20;;;7.90;99.90;;;;;;5032956;28;20453;-65
2021/10/17 07:41:13;;;;;;;19.37;15.67;;;8.00;99.90;;;;;;5033217;28;20547;-66
2021/10/17 07:43:42;;;;;;;17.50;15.70;;;8.10;99.90;;;;;;5015951;28;20484;-68
2021/10/17 07:46:09;;;;;;;19.10;15.90;;;8.20;99.90;;;;;;5013645;28;20471;-65
2021/10/17 07:48:38;;;;;;;16.40;14.57;;;8.30;99.90;;;;;;5013049;28;20453;-66
2021/10/17 07:51:05;;;;;;;19.27;17.27;;;8.30;99.90;;;;;;5013443;28;20519;-66
2021/10/17 07:53:32;;;;;;;21.17;15.97;;;8.30;99.90;;;;;;5013126;28;20500;-66
2021/10/17 07:56:01;;;;;;;23.10;17.60;;;8.20;99.90;;;;;;5012845;28;20866;-65
2021/10/17 07:58:28;;;;;;;23.30;17.87;;;8.30;99.90;;;;;;5029005;28;20472;-67
2021/10/17 08:00:55;;;;;;;21.60;17.17;;;8.30;99.90;;;;;;5032181;28;20477;-67
2021/10/17 08:03:21;;;;;;;23.20;18.80;;;8.30;99.90;;;;;;5031439;28;20472;-66
2021/10/17 08:05:48;;;;;;;20.80;17.50;;;8.30;99.90;;;;;;5032659;28;20440;-67
2021/10/17 08:08:15;;;;;;;21.30;16.00;;;8.30;99.90;;;;;;5032393;28;20440;-67
2021/10/17 08:10:42;;;;;;;21.53;16.10;;;8.30;99.90;;;;;;5032525;28;20480;-67
2021/10/17 08:13:10;;;;;;;20.57;16.50;;;8.30;99.90;;;;;;5032425;28;20499;-67
2021/10/17 08:15:37;;;;;;;25.83;17.20;;;8.20;99.90;;;;;;5031856;28;21112;-67
2021/10/17 08:18:04;;;;;;;19.83;15.90;;;8.30;99.90;;;;;;5032035;28;20539;-65
2021/10/17 08:20:30;;;;;;;22.20;17.00;;;8.30;99.90;;;;;;5026367;28;20865;-67
2021/10/17 08:22:57;;;;;;;20.97;17.47;;;8.30;99.90;;;;;;5031976;28;20448;-67
2021/10/17 08:25:24;;;;;;;20.13;15.03;;;8.40;99.90;;;;;;5031804;28;20441;-66
2021/10/17 08:27:51;;;;;;;22.13;18.00;;;8.40;99.90;;;;;;5031811;28;20447;-67
2021/10/17 08:30:19;;;;;;;21.67;16.60;;;8.50;99.90;;;;;;5025741;28;20471;-65
2021/10/17 08:32:46;;;;;;;22.07;15.73;;;8.50;99.90;;;;;;5028512;28;20455;-68
2021/10/17 08:35:13;;;;;;;20.30;16.33;;;8.50;99.90;;;;;;5024519;28;20543;-68
2021/10/17 08:37:40;;;;;;;17.90;14.80;;;8.70;99.90;;;;;;5026563;28;20461;-68
2021/10/17 08:40:09;;;;;;;20.23;15.20;;;8.90;99.90;;;;;;5026640;28;20481;-67
2021/10/17 08:42:36;;;;;;;17.97;14.60;;;9.10;99.90;;;;;;5025572;28;20986;-67
2021/10/17 08:45:04;;;;;;;20.93;14.90;;;9.20;99.90;;;;;;5025965;28;20468;-67
2021/10/17 08:47:34;;;;;;;20.47;15.00;;;9.10;99.90;;;;;;5029017;28;20449;-66
2021/10/17 08:50:02;;;;;;;19.43;14.87;;;9.10;99.90;;;;;;5029756;28;20448;-66
2021/10/17 08:52:29;;;;;;;18.50;13.90;;;9.10;99.90;;;;;;5028098;28;20445;-66
2021/10/17 08:54:56;;;;;;;21.00;14.60;;;9.00;99.90;;;;;;5029442;28;20461;-67
2021/10/17 08:57:23;;;;;;;18.87;14.57;;;9.20;99.90;;;;;;5029449;28;20487;-67
2021/10/17 08:59:51;;;;;;;16.20;13.90;;;9.10;99.90;;;;;;5029641;28;20475;-67
2021/10/17 09:02:20;;;;;;;14.10;11.60;;;9.20;99.90;;;;;;5030159;28;20441;-67
2021/10/17 09:05:00;;;;;;;15.53;12.10;;;9.30;99.90;;;;;;5029523;28;20461;-66
2021/10/17 09:07:27;;;;;;;16.43;12.53;;;9.30;99.90;;;;;;5022774;28;20441;-67
2021/10/17 09:10:11;;;;;;;16.17;12.33;;;9.50;99.90;;;;;;5027053;28;20888;-67
2021/10/17 09:12:40;;;;;;;14.50;11.43;;;9.50;99.90;;;;;;5029572;28;20875;-67
2021/10/17 09:15:27;;;;;;;14.30;11.10;;;9.70;99.90;;;;;;5029281;28;20467;-66
2021/10/17 09:18:12;;;;;;;14.37;10.97;;;9.80;99.90;;;;;;5029168;28;20547;-67
2021/10/17 09:20:57;;;;;;;13.17;10.60;;;10.00;99.90;;;;;;5029654;28;20511;-67
2021/10/17 09:23:52;;;;;;;15.47;11.43;;;9.90;99.90;;;;;;5029730;28;20483;-68
2021/10/17 09:26:19;;;;;;;15.80;11.20;;;9.90;99.90;;;;;;5029567;28;20449;-67
2021/10/17 09:28:47;;;;;;;13.03;10.60;;;10.20;99.90;;;;;;5030135;28;20802;-67
2021/10/17 09:31:16;;;;;;;13.57;10.87;;;10.30;99.90;;;;;;5031010;28;20440;-67
2021/10/17 09:33:46;;;;;;;13.80;11.33;;;10.60;99.90;;;;;;5024769;28;20460;-67
2021/10/17 09:36:23;;;;;;;13.47;10.17;;;10.50;99.90;;;;;;5025651;28;20480;-67
2021/10/17 09:38:53;;;;;;;16.70;12.00;;;10.20;99.90;;;;;;5015039;28;20456;-69
2021/10/17 09:41:22;;;;;;;16.03;11.80;;;10.10;99.90;;;;;;5016682;28;20538;-68
2021/10/17 09:43:55;;;;;;;15.40;11.40;;;10.40;99.90;;;;;;5017461;28;20478;-67
2021/10/17 09:46:22;;;;;;;13.57;11.83;;;10.40;99.90;;;;;;5015052;28;20486;-66
2021/10/17 09:48:49;;;;;;;15.13;12.43;;;10.40;99.90;;;;;;5017605;28;21021;-67
2021/10/17 09:51:17;;;;;;;14.93;12.23;;;10.50;99.90;;;;;;5018559;28;20449;-66
2021/10/17 09:53:47;;;;;;;14.23;12.53;;;10.70;99.90;;;;;;5028693;28;20491;-66
2021/10/17 09:56:31;;;;;;;13.83;11.70;;;10.90;99.90;;;;;;5016106;28;20484;-67
2021/10/17 09:58:59;;;;;;;15.10;12.63;;;11.00;99.90;;;;;;5023980;28;20846;-67
2021/10/17 10:01:27;;;;;;;16.67;13.17;;;11.00;99.90;;;;;;5021338;28;20984;-68
2021/10/17 10:03:55;;;;;;;17.20;13.70;;;10.90;99.90;;;;;;5019768;28;20480;-67
2021/10/17 10:06:24;;;;;;;16.70;14.37;;;10.90;99.90;;;;;;5022032;28;20845;-67
2021/10/17 10:09:07;;;;;;;19.30;14.67;;;10.80;99.90;;;;;;5021139;28;20516;-69
2021/10/17 10:11:42;;;;;;;17.27;12.80;;;10.70;99.90;;;;;;5033095;28;20544;-66
2021/10/17 10:14:11;;;;;;;17.67;13.27;;;10.70;99.90;;;;;;5029077;28;21224;-67
2021/10/17 10:16:38;;;;;;;16.30;13.27;;;11.00;99.90;;;;;;5029431;28;20484;-68
2021/10/17 10:19:07;;;;;;;17.10;12.73;;;11.10;99.90;;;;;;5025470;28;20540;-67
2021/10/17 10:21:34;;;;;;;14.70;12.53;;;11.00;99.90;;;;;;5030062;28;20433;-67
2021/10/17 10:24:06;;;;;;;16.20;13.20;;;11.10;99.90;;;;;;5029854;28;20465;-68
2021/10/17 10:26:34;;;;;;;16.33;13.90;;;11.10;99.90;;;;;;5029338;28;20544;-67
2021/10/17 10:29:02;;;;;;;21.70;15.70;;;11.20;99.90;;;;;;5029773;28;20536;-68
2021/10/17 10:31:46;;;;;;;17.53;14.63;;;11.00;99.90;;;;;;5030246;28;20441;-67
2021/10/17 10:34:35;;;;;;;16.30;13.90;;;11.00;99.90;;;;;;5029742;28;20490;-67
2021/10/17 10:37:20;;;;;;;16.67;14.50;;;11.00;99.90;;;;;;5031548;28;20551;-68
2021/10/17 10:40:17;;;;;;;20.90;15.50;;;10.90;99.90;;;;;;5031048;28;20457;-68
2021/10/17 10:42:47;;;;;;;18.90;15.43;;;10.90;99.90;;;;;;4997664;28;20552;-68
2021/10/17 10:45:32;;;;;;;16.23;13.47;;;10.90;99.90;;;;;;5021792;28;21037;-69
2021/10/17 10:48:24;;;;;;;17.43;15.57;;;11.10;99.90;;;;;;5024909;28;20591;-68
2021/10/17 10:50:57;;;;;;;17.17;15.13;;;10.90;99.90;;;;;;5025509;28;20441;-68
2021/10/17 10:53:48;;;;;;;18.70;15.77;;;10.90;99.90;;;;;;5025411;28;20472;-68
2021/10/17 10:56:45;;;;;;;16.90;15.10;;;11.00;99.90;;;;;;5025329;28;20487;-67
2021/10/17 10:59:13;;;;;;;17.87;15.40;;;11.10;99.90;;;;;;5024656;28;20449;-68
2021/10/17 11:02:02;;;;;;;18.10;15.90;;;11.20;99.90;;;;;;5025182;28;20442;-68
2021/10/17 11:05:02;;;;;;;19.93;15.60;;;11.50;99.90;;;;;;5023201;28;20558;-68
2021/10/17 11:07:36;;;;;;;19.07;15.70;;;11.50;99.90;;;;;;5023624;28;20491;-68
2021/10/17 11:10:37;;;;;;;20.63;15.63;;;11.40;99.90;;;;;;5024853;28;20552;-67
2021/10/17 11:13:09;;;;;;;17.70;15.50;;;11.00;99.90;;;;;;5025237;28;20444;-69
2021/10/17 11:15:38;;;;;;;20.63;18.23;;;11.10;99.90;;;;;;5026018;28;20483;-70
2021/10/17 11:18:06;;;;;;;18.33;16.30;;;11.30;99.90;;;;;;5025593;28;21009;-69
2021/10/17 11:20:35;;;;;;;21.00;17.43;;;11.30;99.90;;;;;;5021491;28;20448;-70
2021/10/17 11:23:03;;;;;;;18.60;16.53;;;11.50;99.90;;;;;;5023943;28;20452;-69
2021/10/17 11:25:32;;;;;;;19.40;16.70;;;11.50;99.90;;;;;;5024649;28;20436;-69
2021/10/17 11:28:01;;;;;;;16.97;15.17;;;11.50;99.90;;;;;;5023771;28;20455;-68
2021/10/17 11:30:30;;;;;;;21.10;16.70;;;11.60;99.90;;;;;;5025956;28;20439;-67
2021/10/17 11:32:58;;;;;;;19.30;16.47;;;11.70;99.90;;;;;;5023693;28;20490;-66
2021/10/17 11:35:30;;;;;;;21.53;18.27;;;11.90;99.90;;;;;;5022325;28;20433;-67
2021/10/17 11:37:59;;;;;;;21.20;18.80;;;12.10;99.90;;;;;;5028020;28;20492;-67
2021/10/17 11:40:27;;;;;;;19.27;16.20;;;12.10;99.90;;;;;;5025281;28;20451;-67
2021/10/17 11:42:57;;;;;;;19.50;17.50;;;11.90;99.90;;;;;;5022823;28;20813;-67
2021/10/17 11:45:28;;;;;;;22.00;19.57;;;11.80;99.90;;;;;;5028403;28;20456;-66
2021/10/17 11:47:59;;;;;;;20.70;16.90;;;11.70;99.90;;;;;;5028034;28;20972;-66
2021/10/17 11:50:28;;;;;;;21.17;18.87;;;11.70;99.90;;;;;;5028493;28;20535;-67
2021/10/17 11:52:57;;;;;;;23.43;19.30;;;11.90;99.90;;;;;;5027903;28;20445;-68
2021/10/17 11:55:34;;;;;;;19.63;17.10;;;12.00;99.90;;;;;;5028239;28;21048;-67
2021/10/17 11:58:02;;;;;;;21.50;17.60;;;12.00;99.90;;;;;;5027836;28;21216;-67
2021/10/17 12:00:32;;;;;;;21.20;18.13;;;12.00;99.90;;;;;;5029677;28;20458;-66
2021/10/17 12:02:59;;;;;;;19.30;17.23;;;12.10;99.90;;;;;;5029817;28;20445;-67
2021/10/17 12:05:28;;;;;;;23.10;18.20;;;11.90;99.90;;;;;;5017521;28;20453;-66
2021/10/17 12:07:58;;;;;;;24.00;18.27;;;11.80;99.90;;;;;;5025231;28;20442;-67
2021/10/17 12:10:27;;;;;;;23.33;19.13;;;11.60;99.90;;;;;;5024498;28;20548;-66
2021/10/17 12:12:58;;;;;;;23.47;18.17;;;11.60;99.90;;;;;;5028287;28;20988;-66
2021/10/17 12:15:25;;;;;;;22.50;17.63;;;11.60;99.90;;;;;;5025771;28;20456;-66
2021/10/17 12:18:02;;;;;;;20.80;18.10;;;11.70;99.90;;;;;;5030791;28;21033;-66
2021/10/17 12:20:31;;;;;;;22.80;17.40;;;11.80;99.90;;;;;;5029311;28;20527;-67
2021/10/17 12:22:59;;;;;;;27.30;20.40;;;12.00;99.90;;;;;;5025405;28;20882;-67
2021/10/17 12:25:26;;;;;;;24.43;20.50;;;12.00;99.90;;;;;;5031241;28;20540;-66
2021/10/17 12:27:53;;;;;;;22.67;18.73;;;12.00;99.90;;;;;;5029479;28;20459;-66
2021/10/17 12:30:24;;;;;;;25.07;19.20;;;11.90;99.90;;;;;;5028041;28;20533;-66
2021/10/17 12:32:52;;;;;;;22.27;19.97;;;12.00;99.90;;;;;;5029428;28;20452;-67
2021/10/17 12:35:26;;;;;;;22.90;18.70;;;11.90;99.90;;;;;;5032979;28;20472;-66
2021/10/17 12:37:53;;;;;;;20.53;17.40;;;11.80;99.90;;;;;;5031708;28;21174;-67
2021/10/17 12:40:20;;;;;;;20.83;18.53;;;11.80;99.90;;;;;;5032436;28;20538;-66
2021/10/17 12:42:52;;;;;;;21.30;18.90;;;11.90;99.90;;;;;;5032464;28;20449;-66